F/V Oceanie — FVBW — position and weather

sailwx.info

Track history (hours):
 
Tides and Currents Weather Stations Pressure Air Temp Water Temp Dewpoint Dewpoint Depression Visibility Wind Speed Wind Dir Waves Ship Positions

F/V Oceanie

Last reported at 2017-Jan-20 05:33 UTC. Time now 2017-Jan-20 05:48 UTC.
Position N 47°35' W 003°37'.

Length 16 m.

Type: Fishing. MMSI: 228370000.

Date/timePositionNaut miles runAvg speedWind from/ knotsBaromVisibWave heightAir tempDewpointWater temp
2017-Jan-20 05:33N 47°35' W 003°37'1 0.7
2017-Jan-20 04:33N 47°34' W 003°38'1 1.4
2017-Jan-20 03:33N 47°35' W 003°37'7 7.3
2017-Jan-20 02:33N 47°40' W 003°29'6 5.9
2017-Jan-20 01:33N 47°44' W 003°22'0 0.1
2017-Jan-20 00:33N 47°44' W 003°22'5 5.1
2017-Jan-19 23:33N 47°40' W 003°28'8 8.1
2017-Jan-19 22:33N 47°36' W 003°38'1 1.1
2017-Jan-19 21:33N 47°35' W 003°38'3 3.5
2017-Jan-19 20:33N 47°32' W 003°36'3 3.1
2017-Jan-19 19:33N 47°34' W 003°39'4 3.8
2017-Jan-19 18:33N 47°36' W 003°43'3 2.5
2017-Jan-19 17:33N 47°35' W 003°47'3 3.0
2017-Jan-19 16:33N 47°32' W 003°47'3 2.6
2017-Jan-19 15:31N 47°34' W 003°49'2 2.2
2017-Jan-19 14:33N 47°35' W 003°47'3 2.7
2017-Jan-19 13:33N 47°33' W 003°48'3 2.6
2017-Jan-19 12:33N 47°35' W 003°47'2 2.5
2017-Jan-19 11:33N 47°33' W 003°49'4 3.4
2017-Jan-19 10:23N 47°29' W 003°51'2 2.7
2017-Jan-19 09:32N 47°27' W 003°50'2 1.6
2017-Jan-19 08:27N 47°26' W 003°52'7 3.8
2017-Jan-19 06:32N 47°21' W 003°43'8 7.9
2017-Jan-19 05:33N 47°18' W 003°33'3 3.3
2017-Jan-19 04:33N 47°15' W 003°32'3 2.5
2017-Jan-19 03:33N 47°14' W 003°28'3 3.4
2017-Jan-19 02:33N 47°16' W 003°32'3 2.6
2017-Jan-19 01:33N 47°15' W 003°29'2 2.0
2017-Jan-19 00:33N 47°15' W 003°32'2 2.2
2017-Jan-18 23:30N 47°15' W 003°29'2 2.1
2017-Jan-18 22:33N 47°15' W 003°31'0 0.3
2017-Jan-18 21:33N 47°16' W 003°32'3 3.3
2017-Jan-18 20:33N 47°14' W 003°27'1 1.2
2017-Jan-18 19:33N 47°14' W 003°29'3 1.5
2017-Jan-18 17:24N 47°12' W 003°32'3 3.8
2017-Jan-18 16:33N 47°14' W 003°35'4 3.6
2017-Jan-18 15:33N 47°18' W 003°35'5 5.3
2017-Jan-18 14:33N 47°23' W 003°33'9 9.2
2017-Jan-18 13:33N 47°31' W 003°27'9 9.2
2017-Jan-18 12:33N 47°40' W 003°23'4 4.0
2017-Jan-18 11:33N 47°44' W 003°22'0 0.0
2017-Jan-18 10:33N 47°44' W 003°22'0 0.1
2017-Jan-18 09:33N 47°44' W 003°22'  
2017-Jan-12 21:11N 47°44' W 003°22'0 0.0
2017-Jan-12 20:33N 47°44' W 003°22'0 0.0
2017-Jan-12 19:33N 47°44' W 003°22'0 0.0
2017-Jan-12 18:33N 47°44' W 003°22'0 0.3
2017-Jan-12 17:33N 47°43' W 003°22'7 6.6
2017-Jan-12 16:33N 47°37' W 003°22'6 5.5
2017-Jan-12 15:33N 47°32' W 003°26'0 0.5
2017-Jan-12 14:33N 47°32' W 003°26'2 2.2
2017-Jan-12 13:33N 47°30' W 003°24'3 2.9
2017-Jan-12 12:33N 47°28' W 003°27'2 2.1
2017-Jan-12 11:33N 47°30' W 003°26'2 1.5
2017-Jan-12 10:33N 47°29' W 003°26'2 1.7
2017-Jan-12 09:33N 47°30' W 003°25'3 3.0
2017-Jan-12 08:33N 47°27' W 003°26'5 4.5
2017-Jan-12 07:33N 47°31' W 003°31'3 3.2
2017-Jan-12 06:33N 47°29' W 003°35'3 2.7
2017-Jan-12 05:32N 47°26' W 003°35'3 3.2
2017-Jan-12 04:33N 47°29' W 003°32'1 1.1
2017-Jan-12 03:31N 47°28' W 003°32'3 3.5
2017-Jan-12 02:33N 47°25' W 003°29'4 3.8
2017-Jan-12 01:33N 47°22' W 003°28'4 4.2
2017-Jan-12 00:33N 47°19' W 003°23'4 3.6
2017-Jan-11 23:33N 47°17' W 003°19'2 2.2
2017-Jan-11 22:33N 47°18' W 003°22'1 1.5
2017-Jan-11 21:33N 47°17' W 003°20'5 4.9
2017-Jan-11 20:33N 47°22' W 003°19'3 2.8
2017-Jan-11 19:33N 47°19' W 003°19'1 1.0
2017-Jan-11 18:33N 47°20' W 003°20'4 3.8
2017-Jan-11 17:33N 47°23' W 003°22'3 3.1
2017-Jan-11 16:33N 47°24' W 003°27'3 3.3
2017-Jan-11 15:33N 47°21' W 003°27'2 2.0
2017-Jan-11 14:33N 47°21' W 003°30'2 1.6
2017-Jan-11 13:33N 47°20' W 003°28'1 1.0
2017-Jan-11 12:33N 47°21' W 003°27'4 3.9
2017-Jan-11 11:33N 47°19' W 003°22'1 0.6
2017-Jan-11 10:33N 47°18' W 003°22'3 2.7
2017-Jan-11 09:33N 47°17' W 003°19'1 0.6
2017-Jan-11 08:33N 47°16' W 003°19'3 2.8
2017-Jan-11 07:32N 47°18' W 003°22'3 3.5
2017-Jan-11 06:33N 47°16' W 003°19'3 2.5
2017-Jan-11 05:33N 47°18' W 003°21'7 6.9
2017-Jan-11 04:33N 47°24' W 003°22'9 9.2
2017-Jan-11 03:33N 47°34' W 003°23'9 9.3
2017-Jan-11 02:33N 47°43' W 003°22'1 0.8
2017-Jan-11 01:33N 47°44' W 003°22'3 3.5
2017-Jan-11 00:33N 47°40' W 003°22'9 8.8
2017-Jan-10 23:33N 47°32' W 003°26'9 8.7
2017-Jan-10 22:33N 47°24' W 003°31'7 6.7
2017-Jan-10 21:32N 47°18' W 003°35'  
Track history (hours):
 
Tides and Currents Weather Stations Pressure Air Temp Water Temp Dewpoint Dewpoint Depression Visibility Wind Speed Wind Dir Waves Ship Positions

F/V Oceanie

Last reported at 2017-Jan-20 05:33 UTC. Time now 2017-Jan-20 05:48 UTC.
Position N 47°35' W 003°37'.

Length 16 m.

Type: Fishing. MMSI: 228370000.

Date/timePositionNaut miles runAvg speedWind from/ knotsBaromVisibWave heightAir tempDewpointWater temp
2017-Jan-20 05:33N 47°35' W 003°37'1 0.7
2017-Jan-20 04:33N 47°34' W 003°38'1 1.4
2017-Jan-20 03:33N 47°35' W 003°37'7 7.3
2017-Jan-20 02:33N 47°40' W 003°29'6 5.9
2017-Jan-20 01:33N 47°44' W 003°22'0 0.1
2017-Jan-20 00:33N 47°44' W 003°22'5 5.1
2017-Jan-19 23:33N 47°40' W 003°28'8 8.1
2017-Jan-19 22:33N 47°36' W 003°38'1 1.1
2017-Jan-19 21:33N 47°35' W 003°38'3 3.5
2017-Jan-19 20:33N 47°32' W 003°36'3 3.1
2017-Jan-19 19:33N 47°34' W 003°39'4 3.8
2017-Jan-19 18:33N 47°36' W 003°43'3 2.5
2017-Jan-19 17:33N 47°35' W 003°47'3 3.0
2017-Jan-19 16:33N 47°32' W 003°47'3 2.6
2017-Jan-19 15:31N 47°34' W 003°49'2 2.2
2017-Jan-19 14:33N 47°35' W 003°47'3 2.7
2017-Jan-19 13:33N 47°33' W 003°48'3 2.6
2017-Jan-19 12:33N 47°35' W 003°47'2 2.5
2017-Jan-19 11:33N 47°33' W 003°49'4 3.4
2017-Jan-19 10:23N 47°29' W 003°51'2 2.7
2017-Jan-19 09:32N 47°27' W 003°50'2 1.6
2017-Jan-19 08:27N 47°26' W 003°52'7 3.8
2017-Jan-19 06:32N 47°21' W 003°43'8 7.9
2017-Jan-19 05:33N 47°18' W 003°33'3 3.3
2017-Jan-19 04:33N 47°15' W 003°32'3 2.5
2017-Jan-19 03:33N 47°14' W 003°28'3 3.4
2017-Jan-19 02:33N 47°16' W 003°32'3 2.6
2017-Jan-19 01:33N 47°15' W 003°29'2 2.0
2017-Jan-19 00:33N 47°15' W 003°32'2 2.2
2017-Jan-18 23:30N 47°15' W 003°29'2 2.1
2017-Jan-18 22:33N 47°15' W 003°31'0 0.3
2017-Jan-18 21:33N 47°16' W 003°32'3 3.3
2017-Jan-18 20:33N 47°14' W 003°27'1 1.2
2017-Jan-18 19:33N 47°14' W 003°29'3 1.5
2017-Jan-18 17:24N 47°12' W 003°32'3 3.8
2017-Jan-18 16:33N 47°14' W 003°35'4 3.6
2017-Jan-18 15:33N 47°18' W 003°35'5 5.3
2017-Jan-18 14:33N 47°23' W 003°33'9 9.2
2017-Jan-18 13:33N 47°31' W 003°27'9 9.2
2017-Jan-18 12:33N 47°40' W 003°23'4 4.0
2017-Jan-18 11:33N 47°44' W 003°22'0 0.0
2017-Jan-18 10:33N 47°44' W 003°22'0 0.1
2017-Jan-18 09:33N 47°44' W 003°22'  
2017-Jan-12 21:11N 47°44' W 003°22'0 0.0
2017-Jan-12 20:33N 47°44' W 003°22'0 0.0
2017-Jan-12 19:33N 47°44' W 003°22'0 0.0
2017-Jan-12 18:33N 47°44' W 003°22'0 0.3
2017-Jan-12 17:33N 47°43' W 003°22'7 6.6
2017-Jan-12 16:33N 47°37' W 003°22'6 5.5
2017-Jan-12 15:33N 47°32' W 003°26'0 0.5
2017-Jan-12 14:33N 47°32' W 003°26'2 2.2
2017-Jan-12 13:33N 47°30' W 003°24'3 2.9
2017-Jan-12 12:33N 47°28' W 003°27'2 2.1
2017-Jan-12 11:33N 47°30' W 003°26'2 1.5
2017-Jan-12 10:33N 47°29' W 003°26'2 1.7
2017-Jan-12 09:33N 47°30' W 003°25'3 3.0
2017-Jan-12 08:33N 47°27' W 003°26'5 4.5
2017-Jan-12 07:33N 47°31' W 003°31'3 3.2
2017-Jan-12 06:33N 47°29' W 003°35'3 2.7
2017-Jan-12 05:32N 47°26' W 003°35'3 3.2
2017-Jan-12 04:33N 47°29' W 003°32'1 1.1
2017-Jan-12 03:31N 47°28' W 003°32'3 3.5
2017-Jan-12 02:33N 47°25' W 003°29'4 3.8
2017-Jan-12 01:33N 47°22' W 003°28'4 4.2
2017-Jan-12 00:33N 47°19' W 003°23'4 3.6
2017-Jan-11 23:33N 47°17' W 003°19'2 2.2
2017-Jan-11 22:33N 47°18' W 003°22'1 1.5
2017-Jan-11 21:33N 47°17' W 003°20'5 4.9
2017-Jan-11 20:33N 47°22' W 003°19'3 2.8
2017-Jan-11 19:33N 47°19' W 003°19'1 1.0
2017-Jan-11 18:33N 47°20' W 003°20'4 3.8
2017-Jan-11 17:33N 47°23' W 003°22'3 3.1
2017-Jan-11 16:33N 47°24' W 003°27'3 3.3
2017-Jan-11 15:33N 47°21' W 003°27'2 2.0
2017-Jan-11 14:33N 47°21' W 003°30'2 1.6
2017-Jan-11 13:33N 47°20' W 003°28'1 1.0
2017-Jan-11 12:33N 47°21' W 003°27'4 3.9
2017-Jan-11 11:33N 47°19' W 003°22'1 0.6
2017-Jan-11 10:33N 47°18' W 003°22'3 2.7
2017-Jan-11 09:33N 47°17' W 003°19'1 0.6
2017-Jan-11 08:33N 47°16' W 003°19'3 2.8
2017-Jan-11 07:32N 47°18' W 003°22'3 3.5
2017-Jan-11 06:33N 47°16' W 003°19'3 2.5
2017-Jan-11 05:33N 47°18' W 003°21'7 6.9
2017-Jan-11 04:33N 47°24' W 003°22'9 9.2
2017-Jan-11 03:33N 47°34' W 003°23'9 9.3
2017-Jan-11 02:33N 47°43' W 003°22'1 0.8
2017-Jan-11 01:33N 47°44' W 003°22'3 3.5
2017-Jan-11 00:33N 47°40' W 003°22'9 8.8
2017-Jan-10 23:33N 47°32' W 003°26'9 8.7
2017-Jan-10 22:33N 47°24' W 003°31'7 6.7
2017-Jan-10 21:32N 47°18' W 003°35'  

Dump ship's entire track history